
Distance (Route):
Temperature : 1.5°C
Humidity : 0%
Pressure : 0hPa| Receiver | Date | Latitude | Longitude | Direction | Speed | Altitude | Climb | Temperature | Humidity | Pressure | Voltage | Killtimer | Uptime | BKT | XDATA |
|---|---|---|---|---|---|---|---|---|---|---|---|---|---|---|---|
| DB0UT-7 | 2026-09-01 13:48:23 | 48.94964 | 3.48492 | 103° | 26km/h | 3409m | -6.1m/s | 1.5°C | 0% | 0hPa | 4.7V | 00:00:00 | 00:00:00 | 00:00:00 | |
| DB0UT-7 | 2026-09-01 13:47:53 | 48.94988 | 3.48200 | 83° | 37km/h | 3590m | -6.1m/s | 0.1°C | 0% | 0hPa | 4.6V | 00:00:00 | 00:00:00 | 00:00:00 | |
| DB0UT-7 | 2026-09-01 13:46:41 | 48.95099 | 3.47269 | 96° | 37km/h | 4022m | -5.8m/s | -3.4°C | 0% | 0hPa | 4.6V | 00:00:00 | 00:00:00 | 00:00:00 | |
| DB0UT-7 | 2026-09-01 13:46:11 | 48.95134 | 3.46846 | 88° | 31km/h | 4194m | -5.9m/s | -4.7°C | 0% | 0hPa | 4.6V | 00:00:00 | 00:00:00 | 00:00:00 | |
| DB0UT-7 | 2026-09-01 13:45:26 | 48.95175 | 3.46251 | 75° | 35km/h | 4454m | -5.8m/s | -6.9°C | 0% | 0hPa | 4.6V | 00:00:00 | 00:00:00 | 00:00:00 | |
| DB0UT-7 | 2026-09-01 13:44:53 | 48.95185 | 3.45797 | 84° | 37km/h | 4637m | -5.6m/s | -7.4°C | 0% | 0hPa | 4.6V | 00:00:00 | 00:00:00 | 00:00:00 | |
| DB0UT-7 | 2026-09-01 13:44:23 | 48.95238 | 3.45399 | 119° | 44km/h | 4804m | -5.6m/s | -8.4°C | 0% | 0hPa | 4.6V | 00:00:00 | 00:00:00 | 00:00:00 | |
| DB0UT-7 | 2026-09-01 13:43:15 | 48.95382 | 3.44364 | 105° | 44km/h | 5186m | -5.6m/s | -11.3°C | 0% | 0hPa | 4.6V | 00:00:00 | 00:00:00 | 00:00:00 | |
| DB0UT-7 | 2026-09-01 13:42:45 | 48.95427 | 3.43866 | 113° | 40km/h | 5360m | -5.7m/s | -12.8°C | 0% | 0hPa | 4.6V | 00:00:00 | 00:00:00 | 00:00:00 | |
| DB0UT-7 | 2026-09-01 13:41:49 | 48.95552 | 3.42906 | 115° | 53km/h | 5687m | -6.0m/s | -15.8°C | 0% | 0hPa | 4.6V | 00:00:00 | 00:00:00 | 00:00:00 | |
| DB0UT-7 | 2026-09-01 13:41:19 | 48.95632 | 3.42306 | 112° | 53km/h | 5862m | -5.7m/s | -17.3°C | 0% | 0hPa | 4.6V | 00:00:00 | 00:00:00 | 00:00:00 | |
| DB0UT-7 | 2026-09-01 13:40:49 | 48.95705 | 3.41693 | 108° | 66km/h | 6036m | -5.8m/s | -18.6°C | 0% | 0hPa | 4.6V | 00:00:00 | 00:00:00 | 00:00:00 | |
| DB0UT-7 | 2026-09-01 13:39:43 | 48.95913 | 3.40174 | 95° | 66km/h | 6430m | -5.9m/s | -17.7°C | 0% | 0hPa | 4.6V | 00:00:00 | 00:00:00 | 00:00:00 | |
| DB0UT-7 | 2026-09-01 13:39:13 | 48.95960 | 3.39406 | 88° | 69km/h | 6615m | -5.8m/s | -19.1°C | 0% | 0hPa | 4.7V | 00:00:00 | 00:00:00 | 00:00:00 | |
| DB0UT-7 | 2026-09-01 13:38:43 | 48.95878 | 3.38640 | 76° | 58km/h | 6798m | -6.2m/s | -20.0°C | 0% | 0hPa | 4.7V | 00:00:00 | 00:00:00 | 00:00:00 | |
| DB0UT-7 | 2026-09-01 13:38:08 | 48.95821 | 3.37866 | 80° | 64km/h | 7014m | -6.1m/s | -21.5°C | 0% | 0hPa | 4.7V | 00:00:00 | 00:00:00 | 00:00:00 | |
| DB0UT-7 | 2026-09-01 13:37:38 | 48.95735 | 3.37145 | 76° | 69km/h | 7208m | -5.6m/s | -23.0°C | 0% | 0hPa | 4.7V | 00:00:00 | 00:00:00 | 00:00:00 | |
| DB0UT-7 | 2026-09-01 13:36:25 | 48.95454 | 3.35215 | 73° | 71km/h | 7702m | -8.1m/s | -27.4°C | 0% | 0hPa | 4.7V | 00:00:00 | 00:00:00 | 00:00:00 | |
| DB0UT-7 | 2026-09-01 13:35:55 | 48.95358 | 3.34418 | 75° | 71km/h | 7914m | -6.5m/s | -29.2°C | 0% | 0hPa | 4.7V | 00:00:00 | 00:00:00 | 00:00:00 | |
| DB0UT-7 | 2026-09-01 13:34:40 | 48.95165 | 3.32412 | 74° | 78km/h | 8423m | -6.3m/s | -33.4°C | 0% | 0hPa | 4.7V | 00:00:00 | 00:00:00 | 00:00:00 | |
| DB0UT-7 | 2026-09-01 13:34:10 | 48.95065 | 3.31514 | 88° | 82km/h | 8630m | -7.0m/s | -35.3°C | 0% | 0hPa | 4.7V | 00:00:00 | 00:00:00 | 00:00:00 | |
| DB0UT-7 | 2026-09-01 13:33:00 | 48.94803 | 3.29456 | 88° | 89km/h | 9121m | -7.4m/s | -39.2°C | 0% | 0hPa | 4.7V | 00:00:00 | 00:00:00 | 00:00:00 | |
| DB0UT-7 | 2026-09-01 13:32:30 | 48.94691 | 3.28458 | 80° | 89km/h | 9340m | -7.2m/s | -41.0°C | 0% | 0hPa | 4.7V | 00:00:00 | 00:00:00 | 00:00:00 | |
| DB0UT-7 | 2026-09-01 13:31:17 | 48.94436 | 3.25937 | 87° | 93km/h | 9857m | -7.2m/s | -44.2°C | 0% | 0hPa | 4.7V | 00:00:00 | 00:00:00 | 00:00:00 | |
| DB0UT-7 | 2026-09-01 13:30:47 | 48.94315 | 3.24875 | 84° | 99km/h | 10076m | -7.3m/s | -45.8°C | 0% | 0hPa | 4.7V | 00:00:00 | 00:00:00 | 00:00:00 | |
| DB0UT-7 | 2026-09-01 13:29:34 | 48.93939 | 3.22205 | 84° | 110km/h | 10616m | -7.7m/s | -50.1°C | 0% | 0hPa | 4.8V | 00:00:00 | 00:00:00 | 00:00:00 | |
| DB0UT-7 | 2026-09-01 13:29:04 | 48.93768 | 3.20982 | 85° | 110km/h | 10849m | -7.6m/s | -51.8°C | 0% | 0hPa | 4.8V | 00:00:00 | 00:00:00 | 00:00:00 | |
| DB0UT-7 | 2026-09-01 13:27:52 | 48.93316 | 3.17938 | 83° | 119km/h | 11461m | -10.2m/s | -55.7°C | 0% | 0hPa | 4.8V | 00:00:00 | 00:00:00 | 00:00:00 | |
| DB0UT-7 | 2026-09-01 13:27:22 | 48.93157 | 3.16603 | 76° | 100km/h | 11771m | -10.5m/s | -56.7°C | 0% | 0hPa | 4.8V | 00:00:00 | 00:00:00 | 00:00:00 | |
| DB0UT-7 | 2026-09-01 13:26:09 | 48.92652 | 3.13821 | 89° | 80km/h | 12533m | -10.2m/s | -54.2°C | 0% | 0hPa | 4.8V | 00:00:00 | 00:00:00 | 00:00:00 | |
| DB0UT-7 | 2026-09-01 13:25:39 | 48.92493 | 3.12934 | 64° | 75km/h | 12849m | -10.6m/s | -54.6°C | 0% | 0hPa | 4.8V | 00:00:00 | 00:00:00 | 00:00:00 | |
| DB0UT-7 | 2026-09-01 13:24:27 | 48.92305 | 3.10599 | 95° | 71km/h | 13563m | -9.2m/s | -52.6°C | 0% | 0hPa | 4.8V | 00:00:00 | 00:00:00 | 00:00:00 | |
| DB0UT-7 | 2026-09-01 13:23:57 | 48.92295 | 3.09793 | 84° | 64km/h | 13851m | -9.6m/s | -51.8°C | 0% | 0hPa | 4.8V | 00:00:00 | 00:00:00 | 00:00:00 | |
| DB0UT-7 | 2026-09-01 13:22:44 | 48.92079 | 3.08029 | 81° | 66km/h | 14626m | -10.7m/s | -52.7°C | 0% | 0hPa | 4.8V | 00:00:00 | 00:00:00 | 00:00:00 | |
| DB0UT-7 | 2026-09-01 13:22:14 | 48.92059 | 3.07277 | 81° | 69km/h | 14931m | -9.6m/s | -51.3°C | 0% | 0hPa | 4.8V | 00:00:00 | 00:00:00 | 00:00:00 | |
| DB0UT-7 | 2026-09-01 13:21:01 | 48.91942 | 3.05581 | 86° | 55km/h | 15678m | -11.1m/s | -53.0°C | 0% | 0hPa | 4.8V | 00:00:00 | 00:00:00 | 00:00:00 | |
| DB0UT-7 | 2026-09-01 13:20:31 | 48.91944 | 3.04992 | 64° | 57km/h | 15999m | -9.7m/s | -54.0°C | 0% | 0hPa | 4.8V | 00:00:00 | 00:00:00 | 00:00:00 | |
| DB0UT-7 | 2026-09-01 13:19:19 | 48.91877 | 3.03423 | 86° | 53km/h | 16805m | -10.6m/s | -52.6°C | 0% | 0hPa | 4.9V | 00:00:00 | 00:00:00 | 00:00:00 | |
| DB0UT-7 | 2026-09-01 13:18:49 | 48.91793 | 3.02866 | 104° | 38km/h | 17175m | -12.4m/s | -52.6°C | 0% | 0hPa | 4.9V | 00:00:00 | 00:00:00 | 00:00:00 | |
| DB0UT-7 | 2026-09-01 13:17:37 | 48.91671 | 3.01817 | 82° | 38km/h | 18114m | -15.0m/s | -52.0°C | 0% | 0hPa | 4.9V | 00:00:00 | 00:00:00 | 00:00:00 | |
| DB0UT-7 | 2026-09-01 13:17:07 | 48.91652 | 3.01399 | 116° | 29km/h | 18529m | -12.5m/s | -52.3°C | 0% | 0hPa | 4.9V | 00:00:00 | 00:00:00 | 00:00:00 | |
| DB0UT-7 | 2026-09-01 13:15:54 | 48.91387 | 3.00635 | 53° | 31km/h | 19581m | -15.9m/s | -52.2°C | 0% | 0hPa | 4.9V | 00:00:00 | 00:00:00 | 00:00:00 | |
| DB0UT-7 | 2026-09-01 13:15:24 | 48.91330 | 3.00305 | 74° | 16km/h | 20071m | -16.6m/s | -52.6°C | 0% | 0hPa | 4.9V | 00:00:00 | 00:00:00 | 00:00:00 | |
| DB0UT-7 | 2026-09-01 13:14:15 | 48.91277 | 2.99762 | 94° | 13km/h | 21255m | -19.1m/s | -52.7°C | 0% | 0hPa | 4.9V | 00:00:00 | 00:00:00 | 00:00:00 | |
| DB0UT-7 | 2026-09-01 13:12:38 | 48.91125 | 2.99543 | 298° | 9km/h | 22968m | -17.9m/s | -51.2°C | 0% | 0hPa | 4.9V | 00:00:00 | 00:00:00 | 00:00:00 | |
| DB0UT-7 | 2026-09-01 13:12:08 | 48.91075 | 2.99559 | 293° | 15km/h | 23512m | -20.1m/s | -51.9°C | 0% | 0hPa | 4.9V | 00:00:00 | 00:00:00 | 00:00:00 | |
| DB0UT-7 | 2026-09-01 13:10:29 | 48.90965 | 2.99651 | 299° | 13km/h | 25634m | -24.6m/s | -49.0°C | 0% | 0hPa | 4.9V | 00:00:00 | 00:00:00 | 00:00:00 | |
| DJ2DS-15 | 2026-09-01 13:10:11 | 48.90834 | 2.99656 | 80° | 13km/h | 26462m | -24.3m/s | -48.6°C | 0.0% | -1.0hPa | 4.9V | 00:00:00 | 00:00:00 | 00:00:00 | |
| DJ2DS-15 | 2026-09-01 13:09:35 | 48.90758 | 2.99598 | 122° | 13km/h | 27352m | -27.4m/s | -46.5°C | 0.0% | -1.0hPa | 4.9V | 00:00:00 | 00:00:00 | 00:00:00 | |
| DB0UT-7 | 2026-09-01 13:08:53 | 48.90813 | 2.99623 | 244° | 22km/h | 28159m | -29.6m/s | -46.6°C | 0% | 0hPa | 4.9V | 00:00:00 | 00:00:00 | 00:00:00 | |
| DJ2DS-15 | 2026-09-01 13:08:29 | 48.90724 | 2.99682 | 7° | 22km/h | 28853m | -31.4m/s | -46.3°C | 0% | 0hPa | 4.9V | 00:00:00 | 00:00:00 | 00:00:00 | |
| DJ2DS-15 | 2026-09-01 13:08:23 | 48.90679 | 2.99699 | 331° | 20km/h | 29139m | -30.4m/s | -45.3°C | 0.0% | -1.0hPa | 4.9V | 00:00:00 | 00:00:00 | 00:00:00 | |
| DJ2DS-15 | 2026-09-01 13:07:21 | 48.90503 | 2.99626 | 53° | 29km/h | 31060m | -35.0m/s | -39.2°C | 0% | 0hPa | 4.9V | 00:00:00 | 00:00:00 | 00:00:00 | |
| DB0UT-7 | 2026-09-01 13:07:03 | 48.90450 | 2.99423 | 86° | 29km/h | 31702m | -37.8m/s | -37.6°C | 0% | 0hPa | 4.9V | 00:00:00 | 00:00:00 | 00:00:00 | |
| DJ2DS-15 | 2026-09-01 13:06:56 | 48.90447 | 2.99351 | 87° | 22km/h | 31970m | -40.3m/s | -37.0°C | 0% | 0hPa | 4.9V | 00:00:00 | 00:00:00 | 00:00:00 | |
| DB0UT-7 | 2026-09-01 13:06:29 | 48.90418 | 2.99094 | 50° | 29km/h | 33141m | -44.8m/s | -34.7°C | 0% | 0hPa | 5.0V | 00:00:00 | 00:00:00 | 00:00:00 | |
| DJ2DS-15 | 2026-09-01 13:06:26 | 48.90412 | 2.99093 | 14° | 37km/h | 33276m | -41.9m/s | -34.6°C | 0% | 0hPa | 5.0V | 00:00:00 | 00:00:00 | 00:00:00 | |
| DJ2DS-15 | 2026-09-01 13:06:06 | 48.90317 | 2.98940 | 52° | 33km/h | 33668m | 4.8m/s | -34.1°C | 0% | 0hPa | 5.0V | 00:00:00 | 00:00:00 | 00:00:00 | |
| DL1ZP-14 | 2026-09-01 13:06:04 | 48.90300 | 2.98921 | 352° | 16km/h | 33648m | 7.3m/s | -34.1°C | 0.0% | -1.0hPa | 5.0V | 00:00:00 | 00:00:00 | 00:00:00 | |
| DJ2DS-15 | 2026-09-01 13:05:46 | 48.90185 | 2.98789 | 65° | 31km/h | 33549m | 5.1m/s | -34.3°C | 0% | 0hPa | 4.9V | 00:00:00 | 00:00:00 | 00:00:00 | |
| DB0UT-7 | 2026-09-01 13:05:38 | 48.90150 | 2.98734 | 29° | 26km/h | 33496m | 5.6m/s | -34.2°C | 0% | 0hPa | 4.9V | 00:00:00 | 00:00:00 | 00:00:00 | |
| DJ2DS-15 | 2026-09-01 13:05:26 | 48.90086 | 2.98659 | 27° | 20km/h | 33423m | 6.6m/s | -34.2°C | 0% | 0hPa | 4.9V | 00:00:00 | 00:00:00 | 00:00:00 | |
| DB0UT-7 | 2026-09-01 13:05:08 | 48.90023 | 2.98571 | 74° | 20km/h | 33315m | 7.8m/s | -34.3°C | 0% | 0hPa | 4.9V | 00:00:00 | 00:00:00 | 00:00:00 | |
| DJ2DS-15 | 2026-09-01 13:05:06 | 48.90028 | 2.98565 | 161° | 20km/h | 33301m | 5.6m/s | -34.2°C | 0% | 0hPa | 5.0V | 00:00:00 | 00:00:00 | 00:00:00 | |
| DL1ZP-14 | 2026-09-01 13:05:02 | 48.90022 | 2.98551 | 21° | 33km/h | 33271m | 5.2m/s | -34.3°C | 0.0% | -1.0hPa | 5.0V | 00:00:00 | 00:00:00 | 00:00:00 | |
| DJ2DS-15 | 2026-09-01 13:04:46 | 48.90006 | 2.98467 | 110° | 22km/h | 33183m | 4.7m/s | -34.5°C | 0% | 0hPa | 4.9V | 00:00:00 | 00:00:00 | 00:00:00 | |
| DJ2DS-15 | 2026-09-01 13:04:26 | 48.89948 | 2.98360 | 50° | 22km/h | 33062m | 7.0m/s | -34.9°C | 0% | 0hPa | 4.9V | 00:00:00 | 00:00:00 | 00:00:00 | |
| DJ2DS-15 | 2026-09-01 13:04:06 | 48.89868 | 2.98308 | 10° | 24km/h | 32941m | 7.3m/s | -35.7°C | 0% | 0hPa | 4.9V | 00:00:00 | 00:00:00 | 00:00:00 | |
| DB0UT-7 | 2026-09-01 13:03:55 | 48.89838 | 2.98267 | 27° | 27km/h | 32875m | 6.7m/s | -36.3°C | 0% | 0hPa | 4.9V | 00:00:00 | 00:00:00 | 00:00:00 | |
| DJ2DS-15 | 2026-09-01 13:03:46 | 48.89832 | 2.98216 | 73° | 29km/h | 32822m | 6.7m/s | -36.0°C | 0% | 0hPa | 4.9V | 00:00:00 | 00:00:00 | 00:00:00 | |
| DJ2DS-15 | 2026-09-01 13:03:26 | 48.89849 | 2.98025 | 78° | 38km/h | 32699m | 4.5m/s | -36.0°C | 0% | 0hPa | 5.0V | 00:00:00 | 00:00:00 | 00:00:00 | |
| DB0UT-7 | 2026-09-01 13:03:25 | 48.89848 | 2.98012 | 92° | 38km/h | 32694m | 5.3m/s | -36.1°C | 0% | 0hPa | 5.0V | 00:00:00 | 00:00:00 | 00:00:00 | |
| DJ2DS-15 | 2026-09-01 13:03:06 | 48.89891 | 2.97744 | 99° | 35km/h | 32576m | 6.9m/s | -36.1°C | 0% | 0hPa | 5.0V | 00:00:00 | 00:00:00 | 00:00:00 | |
| DJ2DS-15 | 2026-09-01 13:02:46 | 48.89899 | 2.97497 | 119° | 37km/h | 32454m | 6.3m/s | -36.2°C | 0% | 0hPa | 5.0V | 00:00:00 | 00:00:00 | 00:00:00 | |
| DB0UT-7 | 2026-09-01 13:02:41 | 48.89906 | 2.97435 | 60° | 37km/h | 32426m | 5.0m/s | -36.1°C | 0% | 0hPa | 5.0V | 00:00:00 | 00:00:00 | 00:00:00 | |
| DJ2DS-15 | 2026-09-01 13:02:26 | 48.89897 | 2.97236 | 104° | 37km/h | 32336m | 5.0m/s | -36.4°C | 0% | 0hPa | 5.0V | 00:00:00 | 00:00:00 | 00:00:00 | |
| DB0UT-7 | 2026-09-01 13:02:11 | 48.89863 | 2.97037 | 99° | 31km/h | 32240m | 7.0m/s | -36.9°C | 0% | 0hPa | 5.0V | 00:00:00 | 00:00:00 | 00:00:00 | |
| DJ2DS-15 | 2026-09-01 13:02:06 | 48.89862 | 2.96979 | 56° | 29km/h | 32217m | 8.1m/s | -37.1°C | 0% | 0hPa | 5.0V | 00:00:00 | 00:00:00 | 00:00:00 | |
| DJ2DS-15 | 2026-09-01 13:01:46 | 48.89815 | 2.96796 | 40° | 31km/h | 32098m | 5.4m/s | -37.4°C | 0% | 0hPa | 5.0V | 00:00:00 | 00:00:00 | 00:00:00 | |
| DB0UT-7 | 2026-09-01 13:01:40 | 48.89815 | 2.96740 | 124° | 40km/h | 32064m | 4.5m/s | -37.3°C | 0% | 0hPa | 5.0V | 00:00:00 | 00:00:00 | 00:00:00 | |
| DJ2DS-15 | 2026-09-01 13:01:26 | 48.89812 | 2.96590 | 81° | 42km/h | 31980m | 6.0m/s | -37.5°C | 0% | 0hPa | 5.0V | 00:00:00 | 00:00:00 | 00:00:00 | |
| DL1ZP-14 | 2026-09-01 13:01:25 | 48.89812 | 2.96559 | 101° | 38km/h | 31967m | 6.1m/s | -37.7°C | 0.0% | -1.0hPa | 5.0V | 00:00:00 | 00:00:00 | 00:00:00 | |
| DJ2DS-15 | 2026-09-01 13:01:07 | 48.89795 | 2.96273 | 108° | 42km/h | 31860m | 5.5m/s | -37.6°C | 0% | 0hPa | 5.0V | 00:00:00 | 00:00:00 | 00:00:00 | |
| DB0UT-7 | 2026-09-01 13:00:59 | 48.89769 | 2.96157 | 59° | 44km/h | 31822m | 5.6m/s | -38.0°C | 0% | 0hPa | 5.0V | 00:00:00 | 00:00:00 | 00:00:00 | |
| DJ2DS-15 | 2026-09-01 13:00:46 | 48.89763 | 2.95989 | 100° | 46km/h | 31741m | 5.4m/s | -38.2°C | 0% | 0hPa | 5.0V | 00:00:00 | 00:00:00 | 00:00:00 | |
| DB0UT-7 | 2026-09-01 13:00:27 | 48.89703 | 2.95681 | 72° | 38km/h | 31626m | 6.4m/s | -38.6°C | 0% | 0hPa | 5.0V | 00:00:00 | 00:00:00 | 00:00:00 | |
| DJ2DS-15 | 2026-09-01 13:00:26 | 48.89698 | 2.95667 | 53° | 40km/h | 31619m | 7.5m/s | -38.6°C | 0% | 0hPa | 5.0V | 00:00:00 | 00:00:00 | 00:00:00 | |
| DJ2DS-15 | 2026-09-01 13:00:06 | 48.89590 | 2.95425 | 32° | 33km/h | 31497m | 4.6m/s | -38.8°C | 0% | 0hPa | 5.0V | 00:00:00 | 00:00:00 | 00:00:00 | |
| DB0UT-7 | 2026-09-01 12:59:57 | 48.89539 | 2.95337 | 27° | 24km/h | 31442m | 4.5m/s | -38.5°C | 0% | 0hPa | 5.0V | 00:00:00 | 00:00:00 | 00:00:00 | |
| DJ2DS-15 | 2026-09-01 12:59:46 | 48.89486 | 2.95243 | 55° | 27km/h | 31373m | 5.9m/s | -38.8°C | 0% | 0hPa | 5.0V | 00:00:00 | 00:00:00 | 00:00:00 | |
| DJ2DS-15 | 2026-09-01 12:59:27 | 48.89428 | 2.95109 | 123° | 31km/h | 31254m | 4.6m/s | -38.9°C | 0% | 0hPa | 5.0V | 00:00:00 | 00:00:00 | 00:00:00 | |
| DJ2DS-15 | 2026-09-01 12:59:06 | 48.89335 | 2.94953 | 31° | 22km/h | 31129m | 7.1m/s | -39.6°C | 0% | 0hPa | 5.0V | 00:00:00 | 00:00:00 | 00:00:00 | |
| DB0UT-7 | 2026-09-01 12:58:48 | 48.89285 | 2.94862 | 24° | 29km/h | 31016m | 6.5m/s | -40.3°C | 0% | 0hPa | 5.0V | 00:00:00 | 00:00:00 | 00:00:00 | |
| DJ2DS-15 | 2026-09-01 12:58:46 | 48.89261 | 2.94845 | 50° | 22km/h | 30991m | 6.4m/s | -40.4°C | 0.0% | -1.0hPa | 5V | 00:00:00 | 00:00:00 | 00:00:00 | |
| DJ2DS-15 | 2026-09-01 12:58:25 | 48.89155 | 2.94721 | 37° | 27km/h | 30871m | 6.2m/s | -40.8°C | 0% | 0hPa | 5V | 00:00:00 | 00:00:00 | 00:00:00 | |
| DB0UT-7 | 2026-09-01 12:58:18 | 48.89101 | 2.94681 | 60° | 11km/h | 30826m | 5.6m/s | -40.9°C | 0% | 0hPa | 5V | 00:00:00 | 00:00:00 | 00:00:00 | |
| DJ2DS-15 | 2026-09-01 12:58:04 | 48.89022 | 2.94651 | 359° | 16km/h | 30738m | 6.0m/s | -41.1°C | 0% | 0hPa | 5V | 00:00:00 | 00:00:00 | 00:00:00 | |
| DM0DOS-11 | 2026-09-01 12:58:00 | 48.88982 | 2.94642 | 353° | 18km/h | 30688m | 5.7m/s | -41.1°C | 0% | 0hPa | 5V | 00:00:00 | 00:00:00 | 00:00:00 | |
| DM0DOS-11 | 2026-09-01 12:57:46 | 48.88947 | 2.94639 | 56° | 5km/h | 30612m | 6.5m/s | -41.2°C | 0% | 0hPa | 5V | 00:00:00 | 00:00:00 | 00:00:00 | |
| DJ2DS-15 | 2026-09-01 12:57:44 | 48.88947 | 2.94638 | 57° | 11km/h | 30612m | 6.5m/s | -41.2°C | 0% | 0hPa | 5.0V | 00:00:00 | 00:00:00 | 00:00:00 | |
| DM0DOS-11 | 2026-09-01 12:57:39 | 48.88929 | 2.94640 | 349° | 20km/h | 30549m | 7.5m/s | -41.4°C | 0% | 0hPa | 5V | 00:00:00 | 00:00:00 | 00:00:00 | |
| DJ2DS-15 | 2026-09-01 12:57:24 | 48.88910 | 2.94620 | 332° | 9km/h | 30488m | 4.8m/s | -41.3°C | 0% | 0hPa | 5V | 00:00:00 | 00:00:00 | 00:00:00 | |
| DM0DOS-11 | 2026-09-01 12:57:21 | 48.88900 | 2.94616 | 110° | 15km/h | 30458m | 5.2m/s | -41.4°C | 0% | 0hPa | 5V | 00:00:00 | 00:00:00 | 00:00:00 | |
| DJ2DS-15 | 2026-09-01 12:57:05 | 48.88884 | 2.94606 | 119° | 15km/h | 30365m | 7.6m/s | -41.2°C | 0% | 0hPa | 5.0V | 00:00:00 | 00:00:00 | 00:00:00 | |
| DJ2DS-15 | 2026-09-01 12:56:44 | 48.88848 | 2.94552 | 23° | 11km/h | 30244m | 7.3m/s | -41.8°C | 0% | 0hPa | 5.0V | 00:00:00 | 00:00:00 | 00:00:00 | |
| DB0UT-7 | 2026-09-01 12:56:34 | 48.88836 | 2.94537 | 17° | 16km/h | 30183m | 5.2m/s | -41.9°C | 0% | 0hPa | 5.0V | 00:00:00 | 00:00:00 | 00:00:00 | |
| DJ2DS-15 | 2026-09-01 12:56:24 | 48.88820 | 2.94518 | 64° | 20km/h | 30123m | 7.5m/s | -41.9°C | 0% | 0hPa | 5.0V | 00:00:00 | 00:00:00 | 00:00:00 | |
| DJ2DS-15 | 2026-09-01 12:56:04 | 48.88750 | 2.94441 | 39° | 24km/h | 30006m | 6.4m/s | -42.3°C | 0% | 0hPa | 5.0V | 00:00:00 | 00:00:00 | 00:00:00 | |
| DJ2DS-15 | 2026-09-01 12:55:44 | 48.88650 | 2.94373 | 338° | 16km/h | 29889m | 4.5m/s | -42.6°C | 0% | 0hPa | 5.0V | 00:00:00 | 00:00:00 | 00:00:00 | |
| DL1ZP-14 | 2026-09-01 12:55:43 | 48.88643 | 2.94375 | 18° | 11km/h | 29877m | 6.4m/s | -43.1°C | 0.0% | -1.0hPa | 5.0V | 00:00:00 | 00:00:00 | 00:00:00 | |
| DJ2DS-15 | 2026-09-01 12:55:24 | 48.88584 | 2.94329 | 23° | 20km/h | 29772m | 4.3m/s | -43.0°C | 0% | 0hPa | 5.0V | 00:00:00 | 00:00:00 | 00:00:00 | |
| DB0UT-7 | 2026-09-01 12:55:22 | 48.88574 | 2.94329 | 341° | 20km/h | 29759m | 7.0m/s | -42.9°C | 0% | 0hPa | 5.0V | 00:00:00 | 00:00:00 | 00:00:00 | |
| DJ2DS-15 | 2026-09-01 12:55:04 | 48.88500 | 2.94338 | 343° | 16km/h | 29656m | 5.9m/s | -43.2°C | 0% | 0hPa | 5.0V | 00:00:00 | 00:00:00 | 00:00:00 | |
| DB0UT-7 | 2026-09-01 12:54:52 | 48.88456 | 2.94379 | 340° | 15km/h | 29586m | 7.1m/s | -43.6°C | 0% | 0hPa | 5.0V | 00:00:00 | 00:00:00 | 00:00:00 | |
| DJ2DS-15 | 2026-09-01 12:54:44 | 48.88430 | 2.94386 | 321° | 16km/h | 29538m | 6.6m/s | -43.7°C | 0% | 0hPa | 5.0V | 00:00:00 | 00:00:00 | 00:00:00 | |
| DJ2DS-15 | 2026-09-01 12:54:24 | 48.88362 | 2.94405 | 339° | 16km/h | 29420m | 6.9m/s | -44.1°C | 0% | 0hPa | 5.0V | 00:00:00 | 00:00:00 | 00:00:00 | |
| DB0UT-7 | 2026-09-01 12:54:13 | 48.88328 | 2.94445 | 332° | 16km/h | 29352m | 6.1m/s | -44.0°C | 0% | 0hPa | 5.0V | 00:00:00 | 00:00:00 | 00:00:00 | |
| DJ2DS-15 | 2026-09-01 12:54:04 | 48.88302 | 2.94486 | 331° | 16km/h | 29300m | 6.9m/s | -43.9°C | 0% | 0hPa | 5.0V | 00:00:00 | 00:00:00 | 00:00:00 | |
| DJ2DS-15 | 2026-09-01 12:53:43 | 48.88230 | 2.94532 | 333° | 20km/h | 29172m | 6.9m/s | -43.9°C | 0% | 0hPa | 5.0V | 00:00:00 | 00:00:00 | 00:00:00 | |
| DB0UT-7 | 2026-09-01 12:53:38 | 48.88215 | 2.94553 | 79° | 18km/h | 29143m | 6.6m/s | -44.0°C | 0% | 0hPa | 5.0V | 00:00:00 | 00:00:00 | 00:00:00 | |
| DJ2DS-15 | 2026-09-01 12:53:23 | 48.88146 | 2.94567 | 1° | 15km/h | 29052m | 6.9m/s | -44.3°C | 0% | 0hPa | 5.0V | 00:00:00 | 00:00:00 | 00:00:00 | |
| DB0UT-7 | 2026-09-01 12:53:08 | 48.88089 | 2.94588 | 355° | 22km/h | 28959m | 6.5m/s | -44.4°C | 0% | 0hPa | 5.0V | 00:00:00 | 00:00:00 | 00:00:00 | |
| DJ2DS-15 | 2026-09-01 12:53:03 | 48.88084 | 2.94593 | 289° | 15km/h | 28928m | 5.4m/s | -44.6°C | 0% | 0hPa | 5.0V | 00:00:00 | 00:00:00 | 00:00:00 | |
| DJ2DS-15 | 2026-09-01 12:52:43 | 48.88019 | 2.94579 | 360° | 26km/h | 28807m | 4.3m/s | -45.1°C | 0% | 0hPa | 5.0V | 00:00:00 | 00:00:00 | 00:00:00 | |
| DB0UT-7 | 2026-09-01 12:52:32 | 48.87964 | 2.94563 | 354° | 31km/h | 28743m | 7.6m/s | -45.1°C | 0% | 0hPa | 5.0V | 00:00:00 | 00:00:00 | 00:00:00 | |
| DJ2DS-15 | 2026-09-01 12:52:23 | 48.87915 | 2.94584 | 13° | 27km/h | 28686m | 5.9m/s | -45.1°C | 0% | 0hPa | 5.0V | 00:00:00 | 00:00:00 | 00:00:00 | |
| DJ2DS-15 | 2026-09-01 12:52:04 | 48.87824 | 2.94669 | 265° | 20km/h | 28569m | 6.7m/s | -45.0°C | 0% | 0hPa | 5.0V | 00:00:00 | 00:00:00 | 00:00:00 | |
| DB0UT-7 | 2026-09-01 12:51:57 | 48.87791 | 2.94663 | 314° | 15km/h | 28533m | 6.3m/s | -45.0°C | 0% | 0hPa | 5.0V | 00:00:00 | 00:00:00 | 00:00:00 | |
| DJ2DS-15 | 2026-09-01 12:51:43 | 48.87754 | 2.94700 | 309° | 13km/h | 28449m | 6.7m/s | -45.1°C | 0% | 0hPa | 5.0V | 00:00:00 | 00:00:00 | 00:00:00 | |
| DB0UT-7 | 2026-09-01 12:51:27 | 48.87739 | 2.94736 | 38° | 9km/h | 28353m | 5.8m/s | -45.2°C | 0% | 0hPa | 5.0V | 00:00:00 | 00:00:00 | 00:00:00 | |
| DJ2DS-15 | 2026-09-01 12:51:23 | 48.87736 | 2.94725 | 259° | 15km/h | 28330m | 4.9m/s | -45.1°C | 0% | 0hPa | 5.0V | 00:00:00 | 00:00:00 | 00:00:00 | |
| DJ2DS-15 | 2026-09-01 12:51:03 | 48.87748 | 2.94761 | 219° | 15km/h | 28211m | 6.0m/s | -45.4°C | 0% | 0hPa | 5.0V | 00:00:00 | 00:00:00 | 00:00:00 | |
| DJ2DS-15 | 2026-09-01 12:50:43 | 48.87804 | 2.94806 | 202° | 15km/h | 28089m | 6.5m/s | -45.2°C | 0% | 0hPa | 5.0V | 00:00:00 | 00:00:00 | 00:00:00 | |
| DB0UT-7 | 2026-09-01 12:50:39 | 48.87818 | 2.94811 | 166° | 13km/h | 28066m | 6.8m/s | -45.1°C | 0% | 0hPa | 5.0V | 00:00:00 | 00:00:00 | 00:00:00 | |
| DJ2DS-15 | 2026-09-01 12:50:22 | 48.87864 | 2.94824 | 201° | 13km/h | 27964m | 6.6m/s | -44.7°C | 0% | 0hPa | 5.0V | 00:00:00 | 00:00:00 | 00:00:00 | |
| DB0UT-7 | 2026-09-01 12:50:10 | 48.87899 | 2.94831 | 224° | 13km/h | 27886m | 5.0m/s | -45.1°C | 0% | 0hPa | 5.0V | 00:00:00 | 00:00:00 | 00:00:00 | |
| DJ2DS-15 | 2026-09-01 12:50:03 | 48.87918 | 2.94824 | 177° | 13km/h | 27843m | 4.6m/s | -45.1°C | 0% | 0hPa | 5.0V | 00:00:00 | 00:00:00 | 00:00:00 | |
| DL1ZP-14 | 2026-09-01 12:50:02 | 48.87923 | 2.94825 | 183° | 16km/h | 27831m | 6.9m/s | -45.5°C | 0.0% | -1.0hPa | 5.0V | 00:00:00 | 00:00:00 | 00:00:00 | |
| DJ2DS-15 | 2026-09-01 12:49:42 | 48.87966 | 2.94826 | 176° | 11km/h | 27724m | 5.9m/s | -44.7°C | 0% | 0hPa | 5.0V | 00:00:00 | 00:00:00 | 00:00:00 | |
| DB0UT-7 | 2026-09-01 12:49:39 | 48.87969 | 2.94819 | 81° | 9km/h | 27706m | 5.0m/s | -44.8°C | 0% | 0hPa | 5.0V | 00:00:00 | 00:00:00 | 00:00:00 | |
| DJ2DS-15 | 2026-09-01 12:49:22 | 48.88007 | 2.94821 | 217° | 16km/h | 27605m | 6.3m/s | -44.7°C | 0% | 0hPa | 5.0V | 00:00:00 | 00:00:00 | 00:00:00 | |
| DB0UT-7 | 2026-09-01 12:49:05 | 48.88053 | 2.94818 | 161° | 16km/h | 27508m | 5.8m/s | -45.2°C | 0% | 0hPa | 5.0V | 00:00:00 | 00:00:00 | 00:00:00 | |
| DJ2DS-15 | 2026-09-01 12:49:02 | 48.88063 | 2.94808 | 130° | 13km/h | 27491m | 6.7m/s | -45.3°C | 0% | 0hPa | 5.0V | 00:00:00 | 00:00:00 | 00:00:00 | |
| DJ2DS-15 | 2026-09-01 12:48:42 | 48.88105 | 2.94779 | 128° | 16km/h | 27375m | 5.6m/s | -45.3°C | 0% | 0hPa | 5.0V | 00:00:00 | 00:00:00 | 00:00:00 | |
| DB0UT-7 | 2026-09-01 12:48:32 | 48.88121 | 2.94712 | 116° | 18km/h | 27318m | 6.7m/s | -45.7°C | 0% | 0hPa | 5.0V | 00:00:00 | 00:00:00 | 00:00:00 | |
| DJ2DS-15 | 2026-09-01 12:48:21 | 48.88127 | 2.94661 | 102° | 22km/h | 27249m | 5.2m/s | -45.9°C | 0% | 0hPa | 5.0V | 00:00:00 | 00:00:00 | 00:00:00 | |
| DB0UT-7 | 2026-09-01 12:48:02 | 48.88118 | 2.94527 | 131° | 13km/h | 27149m | 5.3m/s | -46.2°C | 0% | 0hPa | 5.0V | 00:00:00 | 00:00:00 | 00:00:00 | |
| DJ2DS-15 | 2026-09-01 12:47:56 | 48.88119 | 2.94499 | 65° | 15km/h | 27115m | 5.0m/s | -46.3°C | 0% | 0hPa | 5.0V | 00:00:00 | 00:00:00 | 00:00:00 | |
| DJ2DS-15 | 2026-09-01 12:47:35 | 48.88079 | 2.94436 | 23° | 13km/h | 26998m | 5.9m/s | -46.7°C | 0% | 0hPa | 5.0V | 00:00:00 | 00:00:00 | 00:00:00 | |
| DB0UT-7 | 2026-09-01 12:47:32 | 48.88076 | 2.94432 | 320° | 13km/h | 26981m | 5.3m/s | -46.7°C | 0% | 0hPa | 5.0V | 00:00:00 | 00:00:00 | 00:00:00 | |
| DJ2DS-15 | 2026-09-01 12:46:54 | 48.87970 | 2.94524 | 358° | 11km/h | 26768m | 6.2m/s | -47.5°C | 0% | 0hPa | 5.1V | 00:00:00 | 00:00:00 | 00:00:00 | |
| DB0UT-7 | 2026-09-01 12:46:48 | 48.87955 | 2.94527 | 323° | 11km/h | 26735m | 4.6m/s | -47.5°C | 0% | 0hPa | 5.1V | 00:00:00 | 00:00:00 | 00:00:00 | |
| DJ2DS-15 | 2026-09-01 12:46:34 | 48.87929 | 2.94565 | 112° | 9km/h | 26656m | 5.4m/s | -47.4°C | 0% | 0hPa | 5.1V | 00:00:00 | 00:00:00 | 00:00:00 | |
| DB0UT-7 | 2026-09-01 12:46:19 | 48.87899 | 2.94572 | 19° | 26km/h | 26567m | 4.6m/s | -47.3°C | 0% | 0hPa | 5.1V | 00:00:00 | 00:00:00 | 00:00:00 | |
| DJ2DS-15 | 2026-09-01 12:46:14 | 48.87886 | 2.94580 | 10° | 11km/h | 26537m | 6.4m/s | -47.4°C | 0% | 0hPa | 5.1V | 00:00:00 | 00:00:00 | 00:00:00 | |
| DJ2DS-15 | 2026-09-01 12:45:51 | 48.87848 | 2.94528 | 49° | 22km/h | 26411m | 6.0m/s | -47.8°C | 0% | 0hPa | 5.1V | 00:00:00 | 00:00:00 | 00:00:00 | |
| DJ2DS-15 | 2026-09-01 12:45:31 | 48.87750 | 2.94485 | 34° | 27km/h | 26296m | 5.1m/s | -48.2°C | 0% | 0hPa | 5.1V | 00:00:00 | 00:00:00 | 00:00:00 | |
| DJ2DS-15 | 2026-09-01 12:45:10 | 48.87612 | 2.94470 | 3° | 24km/h | 26177m | 5.1m/s | -48.4°C | 0% | 0hPa | 5.1V | 00:00:00 | 00:00:00 | 00:00:00 | |
| DB0UT-7 | 2026-09-01 12:45:07 | 48.87595 | 2.94458 | 36° | 22km/h | 26159m | 5.0m/s | -48.5°C | 0% | 0hPa | 5.1V | 00:00:00 | 00:00:00 | 00:00:00 | |
| DJ2DS-15 | 2026-09-01 12:44:49 | 48.87495 | 2.94477 | 327° | 18km/h | 26055m | 7.0m/s | -48.7°C | 0% | 0hPa | 5.0V | 00:00:00 | 00:00:00 | 00:00:00 | |
| DB0UT-7 | 2026-09-01 12:44:37 | 48.87447 | 2.94512 | 347° | 24km/h | 25987m | 4.9m/s | -48.8°C | 0% | 0hPa | 5.0V | 00:00:00 | 00:00:00 | 00:00:00 | |
| DJ2DS-15 | 2026-09-01 12:44:27 | 48.87422 | 2.94555 | 240° | 22km/h | 25931m | 5.7m/s | -48.8°C | 0% | 0hPa | 5.0V | 00:00:00 | 00:00:00 | 00:00:00 | |
| DB0UT-7 | 2026-09-01 12:43:23 | 48.87166 | 2.94806 | 298° | 22km/h | 25563m | 6.3m/s | -48.4°C | 0% | 0hPa | 5.1V | 00:00:00 | 00:00:00 | 00:00:00 | |
| DB0UT-7 | 2026-09-01 12:42:53 | 48.87071 | 2.94997 | 274° | 13km/h | 25396m | 6.6m/s | -48.2°C | 0% | 0hPa | 5.1V | 00:00:00 | 00:00:00 | 00:00:00 | |
| DB0UT-7 | 2026-09-01 12:41:42 | 48.87005 | 2.95307 | 333° | 16km/h | 24997m | 6.0m/s | -49.0°C | 0% | 0hPa | 5.1V | 00:00:00 | 00:00:00 | 00:00:00 | |
| DB0UT-7 | 2026-09-01 12:41:12 | 48.86891 | 2.95284 | 28° | 13km/h | 24832m | 4.1m/s | -48.5°C | 0% | 0hPa | 5.1V | 00:00:00 | 00:00:00 | 00:00:00 | |
| DB0UT-7 | 2026-09-01 12:39:59 | 48.86712 | 2.95260 | 281° | 15km/h | 24423m | 6.0m/s | -50.4°C | 0% | 0hPa | 5.1V | 00:00:00 | 00:00:00 | 00:00:00 | |
| DB0UT-7 | 2026-09-01 12:39:29 | 48.86621 | 2.95330 | 325° | 15km/h | 24251m | 6.0m/s | -51.0°C | 0% | 0hPa | 5.1V | 00:00:00 | 00:00:00 | 00:00:00 | |
| DB0UT-7 | 2026-09-01 12:38:16 | 48.86639 | 2.95474 | 92° | 13km/h | 23838m | 5.5m/s | -51.7°C | 0% | 0hPa | 5.1V | 00:00:00 | 00:00:00 | 00:00:00 | |
| DB0UT-7 | 2026-09-01 12:37:46 | 48.86551 | 2.95445 | 10° | 9km/h | 23670m | 5.7m/s | -51.6°C | 0% | 0hPa | 5.1V | 00:00:00 | 00:00:00 | 00:00:00 | |
| DB0UT-7 | 2026-09-01 12:36:27 | 48.86417 | 2.95672 | 30° | 9km/h | 23238m | 6.0m/s | -50.6°C | 0% | 0hPa | 5.2V | 00:00:00 | 00:00:00 | 00:00:00 | |
| DB0UT-7 | 2026-09-01 12:35:57 | 48.86378 | 2.95591 | 135° | 5km/h | 23071m | 4.5m/s | -50.6°C | 0% | 0hPa | 5.2V | 00:00:00 | 00:00:00 | 00:00:00 | |
| DB0UT-7 | 2026-09-01 12:34:50 | 48.86299 | 2.95652 | 216° | 9km/h | 22713m | 5.2m/s | -50.0°C | 0% | 0hPa | 5.2V | 00:00:00 | 00:00:00 | 00:00:00 | |
| DB0UT-7 | 2026-09-01 12:34:20 | 48.86320 | 2.95570 | 107° | 11km/h | 22547m | 4.6m/s | -51.2°C | 0% | 0hPa | 5.2V | 00:00:00 | 00:00:00 | 00:00:00 | |
| DM0DOS-11 | 2026-09-01 12:33:55 | 48.86257 | 2.95555 | 303° | 9km/h | 22382m | 4.8m/s | -51.1°C | 0% | 0hPa | 5.2V | 00:00:00 | 00:00:00 | 00:00:00 | |
| DM0DOS-11 | 2026-09-01 12:33:45 | 48.86223 | 2.95565 | 12° | 11km/h | 22329m | 5.4m/s | -51.3°C | 0% | 0hPa | 5.2V | 00:00:00 | 00:00:00 | 00:00:00 | |
| DM0DOS-11 | 2026-09-01 12:33:30 | 48.86168 | 2.95603 | 308° | 9km/h | 22270m | 4.3m/s | -51.6°C | 0% | 0hPa | 5.2V | 00:00:00 | 00:00:00 | 00:00:00 | |
| DM0DOS-11 | 2026-09-01 12:33:25 | 48.86136 | 2.95632 | 358° | 5km/h | 22215m | 5.9m/s | -51.4°C | 0% | 0hPa | 5.2V | 00:00:00 | 00:00:00 | 00:00:00 | |
| DM0DOS-11 | 2026-09-01 12:33:09 | 48.86125 | 2.95646 | 180° | 5km/h | 22133m | 5.4m/s | -51.6°C | 0% | 0hPa | 5.2V | 00:00:00 | 00:00:00 | 00:00:00 | |
| DB0UT-7 | 2026-09-01 12:33:07 | 48.86117 | 2.95648 | 146° | 9km/h | 22149m | 5.9m/s | -51.6°C | 0% | 0hPa | 5.2V | 00:00:00 | 00:00:00 | 00:00:00 | |
| DM0DOS-11 | 2026-09-01 12:32:57 | 48.86128 | 2.95626 | 152° | 7km/h | 22068m | 4.4m/s | -51.5°C | 0% | 0hPa | 5.2V | 00:00:00 | 00:00:00 | 00:00:00 | |
| DB0UT-7 | 2026-09-01 12:32:37 | 48.86141 | 2.95601 | 46° | 16km/h | 21987m | 5.2m/s | -51.8°C | 0% | 0hPa | 5.2V | 00:00:00 | 00:00:00 | 00:00:00 | |
| DB0UT-7 | 2026-09-01 12:31:26 | 48.86261 | 2.95145 | 107° | 11km/h | 21612m | 4.6m/s | -52.0°C | 0% | 0hPa | 5.2V | 00:00:00 | 00:00:00 | 00:00:00 | |
| DB0UT-7 | 2026-09-01 12:30:57 | 48.86243 | 2.95049 | 6° | 11km/h | 21459m | 4.9m/s | -52.1°C | 0% | 0hPa | 5.2V | 00:00:00 | 00:00:00 | 00:00:00 | |
| DM0DOS-11 | 2026-09-01 12:30:53 | 48.86237 | 2.95033 | 85° | 11km/h | 21418m | 5.3m/s | -52.5°C | 0% | 0hPa | 5.2V | 00:00:00 | 00:00:00 | 00:00:00 | |
| DM0DOS-11 | 2026-09-01 12:30:32 | 48.86216 | 2.94987 | 87° | 13km/h | 21327m | 5m/s | -52.6°C | 0% | 0hPa | 5.2V | 00:00:00 | 00:00:00 | 00:00:00 | |
| DM0DOS-11 | 2026-09-01 12:30:20 | 48.86197 | 2.94949 | 99° | 15km/h | 21265m | 4m/s | -52.3°C | 0% | 0hPa | 5.3V | 00:00:00 | 00:00:00 | 00:00:00 | |
| DM0DOS-11 | 2026-09-01 12:30:02 | 48.86176 | 2.94865 | 107° | 7km/h | 21172m | 5.3m/s | -52°C | 0% | 0hPa | 5.3V | 00:00:00 | 00:00:00 | 00:00:00 | |
| DB0UT-7 | 2026-09-01 12:29:43 | 48.86180 | 2.94806 | 61° | 9km/h | 21085m | 4.7m/s | -51.9°C | 0% | 0hPa | 5.2V | 00:00:00 | 00:00:00 | 00:00:00 | |
| DB0UT-7 | 2026-09-01 12:29:13 | 48.86166 | 2.94734 | 79° | 24km/h | 20928m | 5.1m/s | -51.7°C | 0% | 0hPa | 5.3V | 00:00:00 | 00:00:00 | 00:00:00 | |
| DB0UT-7 | 2026-09-01 12:27:59 | 48.85954 | 2.94352 | 35° | 18km/h | 20545m | 5.7m/s | -51.3°C | 0% | 0hPa | 5.3V | 00:00:00 | 00:00:00 | 00:00:00 | |
| DM0DOS-11 | 2026-09-01 12:27:36 | 48.85862 | 2.94234 | 38° | 20km/h | 20411m | 5.5m/s | -51.8°C | 0% | 0hPa | 5.3V | 00:00:00 | 00:00:00 | 00:00:00 | |
| DB0UT-7 | 2026-09-01 12:27:29 | 48.85851 | 2.94222 | 26° | 33km/h | 20397m | 5.9m/s | -51.7°C | 0% | 0hPa | 5.2V | 00:00:00 | 00:00:00 | 00:00:00 | |
| DB0UT-7 | 2026-09-01 12:26:18 | 48.85846 | 2.93493 | 75° | 27km/h | 20054m | 4.1m/s | -51.9°C | 0% | 0hPa | 5.3V | 00:00:00 | 00:00:00 | 00:00:00 | |
| DM0DOS-11 | 2026-09-01 12:25:25 | 48.85762 | 2.92900 | 85° | 27km/h | 19769m | 5.8m/s | -51.5°C | 0% | 0hPa | 5.3V | 00:00:00 | 00:00:00 | 00:00:00 | |
| DM0DOS-11 | 2026-09-01 12:25:14 | 48.85764 | 2.92752 | 91° | 35km/h | 19716m | 4.3m/s | -51.7°C | 0% | 0hPa | 5.3V | 00:00:00 | 00:00:00 | 00:00:00 | |
| DM0DOS-11 | 2026-09-01 12:25:04 | 48.85744 | 2.92618 | 82° | 37km/h | 19668m | 4.7m/s | -51.6°C | 0% | 0hPa | 5.3V | 00:00:00 | 00:00:00 | 00:00:00 | |
| DM0DOS-11 | 2026-09-01 12:24:52 | 48.85712 | 2.92475 | 72° | 40km/h | 19621m | 5.2m/s | -51.7°C | 0% | 0hPa | 5.3V | 00:00:00 | 00:00:00 | 00:00:00 | |
| DB0UT-7 | 2026-09-01 12:24:41 | 48.85679 | 2.92392 | 58° | 35km/h | 19584m | 4.7m/s | -51.8°C | 0% | 0hPa | 5.3V | 00:00:00 | 00:00:00 | 00:00:00 | |
| DB0UT-7 | 2026-09-01 12:24:11 | 48.85553 | 2.92038 | 60° | 29km/h | 19438m | 5.1m/s | -52.2°C | 0% | 0hPa | 5.3V | 00:00:00 | 00:00:00 | 00:00:00 | |
| DB0UT-7 | 2026-09-01 12:23:41 | 48.85470 | 2.91702 | 67° | 38km/h | 19295m | 4.1m/s | -52.2°C | 0% | 0hPa | 5.3V | 00:00:00 | 00:00:00 | 00:00:00 | |
| DB0UT-7 | 2026-09-01 12:22:53 | 48.85248 | 2.91036 | 61° | 33km/h | 19066m | 4.7m/s | -52.4°C | 0% | 0hPa | 5.3V | 00:00:00 | 00:00:00 | 00:00:00 | |
| DM0DOS-11 | 2026-09-01 12:22:46 | 48.85199 | 2.90878 | 56° | 33km/h | 19009m | 5.1m/s | -52.2°C | 0% | 0hPa | 5.3V | 00:00:00 | 00:00:00 | 00:00:00 | |
| DM0DOS-11 | 2026-09-01 12:22:35 | 48.85146 | 2.90754 | 71° | 27km/h | 18950m | 6m/s | -52.1°C | 0% | 0hPa | 5.3V | 00:00:00 | 00:00:00 | 00:00:00 | |
| DM0DOS-11 | 2026-09-01 12:22:24 | 48.85107 | 2.90662 | 75° | 29km/h | 18901m | 5m/s | -52.5°C | 0% | 0hPa | 5.3V | 00:00:00 | 00:00:00 | 00:00:00 | |
| DB0UT-7 | 2026-09-01 12:22:24 | 48.85124 | 2.90705 | 52° | 31km/h | 18921m | 5.6m/s | -52.4°C | 0% | 0hPa | 5.3V | 00:00:00 | 00:00:00 | 00:00:00 | |
| DM0DOS-11 | 2026-09-01 12:22:09 | 48.85065 | 2.90551 | 69° | 38km/h | 18843m | 5.4m/s | -52.6°C | 0% | 0hPa | 5.3V | 00:00:00 | 00:00:00 | 00:00:00 | |
| DM0DOS-11 | 2026-09-01 12:21:43 | 48.85007 | 2.90335 | 74° | 22km/h | 18696m | 6.6m/s | -51.9°C | 0% | 0hPa | 5.3V | 00:00:00 | 00:00:00 | 00:00:00 | |
| DB0UT-7 | 2026-09-01 12:21:39 | 48.85008 | 2.90335 | 75° | 22km/h | 18696m | 6.5m/s | -51.8°C | 0% | 0hPa | 5.3V | 00:00:00 | 00:00:00 | 00:00:00 | |
| DM0DOS-11 | 2026-09-01 12:21:31 | 48.85009 | 2.90275 | 89° | 24km/h | 18645m | 5.7m/s | -51.7°C | 0% | 0hPa | 5.3V | 00:00:00 | 00:00:00 | 00:00:00 | |
| DM0DOS-11 | 2026-09-01 12:21:23 | 48.85019 | 2.90179 | 107° | 26km/h | 18586m | 5.5m/s | -51.6°C | 0% | 0hPa | 5.3V | 00:00:00 | 00:00:00 | 00:00:00 | |
| DB0UT-7 | 2026-09-01 12:21:09 | 48.85041 | 2.90113 | 126° | 31km/h | 18546m | 5.2m/s | -51.3°C | 0% | 0hPa | 5.3V | 00:00:00 | 00:00:00 | 00:00:00 | |
| DM0DOS-11 | 2026-09-01 12:21:03 | 48.85060 | 2.90046 | 106° | 24km/h | 18509m | 4.7m/s | -51.4°C | 0% | 0hPa | 5.3V | 00:00:00 | 00:00:00 | 00:00:00 | |
| DM0DOS-11 | 2026-09-01 12:20:56 | 48.85098 | 2.89930 | 111° | 29km/h | 18454m | 5.2m/s | -51.8°C | 0% | 0hPa | 5.3V | 00:00:00 | 00:00:00 | 00:00:00 | |
| DB0UT-7 | 2026-09-01 12:20:39 | 48.85131 | 2.89775 | 114° | 37km/h | 18397m | 4.2m/s | -51.8°C | 0% | 0hPa | 5.3V | 00:00:00 | 00:00:00 | 00:00:00 | |
| DB0UT-7 | 2026-09-01 12:19:56 | 48.85103 | 2.89124 | 67° | 29km/h | 18172m | 4.3m/s | -51.8°C | 0% | 0hPa | 5.3V | 00:00:00 | 00:00:00 | 00:00:00 | |
| DM0DOS-11 | 2026-09-01 12:19:26 | 48.84995 | 2.88741 | 85° | 20km/h | 18001m | 5.4m/s | -51.1°C | 0% | 0hPa | 5.3V | 00:00:00 | 00:00:00 | 00:00:00 | |
| DB0UT-7 | 2026-09-01 12:19:26 | 48.85001 | 2.88793 | 81° | 33km/h | 18026m | 4.5m/s | -51.2°C | 0% | 0hPa | 5.3V | 00:00:00 | 00:00:00 | 00:00:00 | |
| DM0DOS-11 | 2026-09-01 12:19:10 | 48.84980 | 2.88561 | 71° | 38km/h | 17930m | 4.5m/s | -51.1°C | 0% | 0hPa | 5.4V | 00:00:00 | 00:00:00 | 00:00:00 | |
| DM0DOS-11 | 2026-09-01 12:18:57 | 48.84963 | 2.88409 | 65° | 33km/h | 17879m | 4.9m/s | -51.2°C | 0% | 0hPa | 5.4V | 00:00:00 | 00:00:00 | 00:00:00 | |
| DB0UT-7 | 2026-09-01 12:18:56 | 48.84967 | 2.88421 | 67° | 38km/h | 17884m | 3.5m/s | -51.1°C | 0% | 0hPa | 5.4V | 00:00:00 | 00:00:00 | 00:00:00 | |
| DM0DOS-11 | 2026-09-01 12:18:45 | 48.84930 | 2.88214 | 90° | 38km/h | 17805m | 4.7m/s | -51.4°C | 0% | 0hPa | 5.4V | 00:00:00 | 00:00:00 | 00:00:00 | |
| DM0DOS-11 | 2026-09-01 12:18:34 | 48.84902 | 2.88104 | 86° | 35km/h | 17758m | 5.1m/s | -51.7°C | 0% | 0hPa | 5.4V | 00:00:00 | 00:00:00 | 00:00:00 | |
| DM0DOS-11 | 2026-09-01 12:18:22 | 48.84867 | 2.87951 | 71° | 35km/h | 17709m | 4.3m/s | -51.8°C | 0% | 0hPa | 5.4V | 00:00:00 | 00:00:00 | 00:00:00 | |
| DM0DOS-11 | 2026-09-01 12:18:07 | 48.84829 | 2.87741 | 81° | 35km/h | 17636m | 4.5m/s | -52.2°C | 0% | 0hPa | 5.4V | 00:00:00 | 00:00:00 | 00:00:00 | |
| DM0DOS-11 | 2026-09-01 12:17:56 | 48.84804 | 2.87597 | 75° | 35km/h | 17590m | 4.8m/s | -52.6°C | 0% | 0hPa | 5.4V | 00:00:00 | 00:00:00 | 00:00:00 | |
| DB0UT-7 | 2026-09-01 12:17:45 | 48.84783 | 2.87489 | 76° | 37km/h | 17558m | 4.0m/s | -52.5°C | 0% | 0hPa | 5.4V | 00:00:00 | 00:00:00 | 00:00:00 | |
| DM0DOS-11 | 2026-09-01 12:17:44 | 48.84769 | 2.87419 | 70° | 35km/h | 17534m | 3.8m/s | -52.4°C | 0% | 0hPa | 5.4V | 00:00:00 | 00:00:00 | 00:00:00 | |
| DM0DOS-11 | 2026-09-01 12:17:27 | 48.84721 | 2.87200 | 78° | 26km/h | 17457m | 4.7m/s | -52.9°C | 0% | 0hPa | 5.4V | 00:00:00 | 00:00:00 | 00:00:00 | |
| DB0UT-7 | 2026-09-01 12:17:17 | 48.84708 | 2.87097 | 74° | 38km/h | 17422m | 4.5m/s | -52.9°C | 0% | 0hPa | 5.3V | 00:00:00 | 00:00:00 | 00:00:00 | |
| DM0DOS-11 | 2026-09-01 12:17:08 | 48.84697 | 2.86947 | 77° | 37km/h | 17368m | 4.4m/s | -52.9°C | 0% | 0hPa | 5.4V | 00:00:00 | 00:00:00 | 00:00:00 | |
| DM0DOS-11 | 2026-09-01 12:16:57 | 48.84695 | 2.86787 | 81° | 47km/h | 17316m | 4.3m/s | -52.7°C | 0% | 0hPa | 5.4V | 00:00:00 | 00:00:00 | 00:00:00 | |
| DM0DOS-11 | 2026-09-01 12:16:46 | 48.84686 | 2.86590 | 79° | 47km/h | 17262m | 4.3m/s | -52.5°C | 0% | 0hPa | 5.4V | 00:00:00 | 00:00:00 | 00:00:00 | |
| DM0DOS-11 | 2026-09-01 12:16:34 | 48.84669 | 2.86404 | 81° | 44km/h | 17211m | 4.4m/s | -52.6°C | 0% | 0hPa | 5.4V | 00:00:00 | 00:00:00 | 00:00:00 | |
| DM0DOS-11 | 2026-09-01 12:16:22 | 48.84648 | 2.86218 | 73° | 47km/h | 17160m | 4.2m/s | -52.7°C | 0% | 0hPa | 5.4V | 00:00:00 | 00:00:00 | 00:00:00 | |
| DM0DOS-11 | 2026-09-01 12:16:05 | 48.84613 | 2.85971 | 75° | 27km/h | 17088m | 3.4m/s | -53°C | 0% | 0hPa | 5.4V | 00:00:00 | 00:00:00 | 00:00:00 | |
| DB0UT-7 | 2026-09-01 12:16:01 | 48.84612 | 2.85960 | 80° | 37km/h | 17083m | 4.7m/s | -53.0°C | 0% | 0hPa | 5.4V | 00:00:00 | 00:00:00 | 00:00:00 | |
| DM0DOS-11 | 2026-09-01 12:15:57 | 48.84586 | 2.85825 | 78° | 29km/h | 17043m | 5.5m/s | -52.9°C | 0% | 0hPa | 5.4V | 00:00:00 | 00:00:00 | 00:00:00 | |
| DM0DOS-11 | 2026-09-01 12:15:45 | 48.84560 | 2.85678 | 84° | 38km/h | 16992m | 3.6m/s | -52.5°C | 0% | 0hPa | 5.4V | 00:00:00 | 00:00:00 | 00:00:00 | |
| DB0UT-7 | 2026-09-01 12:15:32 | 48.84549 | 2.85554 | 91° | 42km/h | 16946m | 4.8m/s | -52.1°C | 0% | 0hPa | 5.4V | 00:00:00 | 00:00:00 | 00:00:00 | |
| DM0DOS-11 | 2026-09-01 12:15:21 | 48.84547 | 2.85377 | 93° | 44km/h | 16884m | 5m/s | -52.2°C | 0% | 0hPa | 5.4V | 00:00:00 | 00:00:00 | 00:00:00 | |
| DM0DOS-11 | 2026-09-01 12:15:14 | 48.84553 | 2.85233 | 92° | 47km/h | 16839m | 5.2m/s | -52.5°C | 0% | 0hPa | 5.4V | 00:00:00 | 00:00:00 | 00:00:00 | |
| DM0DOS-11 | 2026-09-01 12:15:02 | 48.84557 | 2.85064 | 97° | 46km/h | 16795m | 3.6m/s | -52.7°C | 0% | 0hPa | 5.4V | 00:00:00 | 00:00:00 | 00:00:00 | |
| DB0UT-7 | 2026-09-01 12:14:52 | 48.84564 | 2.84947 | 90° | 53km/h | 16769m | 4.4m/s | -52.6°C | 0% | 0hPa | 5.3V | 00:00:00 | 00:00:00 | 00:00:00 | |
| DM0DOS-11 | 2026-09-01 12:14:50 | 48.84564 | 2.84879 | 96° | 49km/h | 16751m | 4.8m/s | -52.7°C | 0% | 0hPa | 5.4V | 00:00:00 | 00:00:00 | 00:00:00 | |
| DB0UT-7 | 2026-09-01 12:14:19 | 48.84604 | 2.84295 | 94° | 49km/h | 16623m | 4.5m/s | -52.9°C | 0% | 0hPa | 5.4V | 00:00:00 | 00:00:00 | 00:00:00 | |
| DB0UT-7 | 2026-09-01 12:13:49 | 48.84624 | 2.83742 | 102° | 55km/h | 16489m | 4.8m/s | -52.9°C | 0% | 0hPa | 5.4V | 00:00:00 | 00:00:00 | 00:00:00 | |
| DB0UT-7 | 2026-09-01 12:12:38 | 48.84629 | 2.82329 | 91° | 64km/h | 16172m | 5.3m/s | -53.4°C | 0% | 0hPa | 5.4V | 00:00:00 | 00:00:00 | 00:00:00 | |
| DB0UT-7 | 2026-09-01 12:12:09 | 48.84593 | 2.81602 | 77° | 53km/h | 16039m | 4.6m/s | -54.0°C | 0% | 0hPa | 5.4V | 00:00:00 | 00:00:00 | 00:00:00 | |
| DB0UT-7 | 2026-09-01 12:10:55 | 48.84390 | 2.80083 | 90° | 58km/h | 15700m | 3.8m/s | -52.9°C | 0% | 0hPa | 5.4V | 00:00:00 | 00:00:00 | 00:00:00 | |
| DB0UT-7 | 2026-09-01 12:10:26 | 48.84395 | 2.79411 | 93° | 62km/h | 15568m | 4.4m/s | -52.6°C | 0% | 0hPa | 5.4V | 00:00:00 | 00:00:00 | 00:00:00 | |
| DB0UT-7 | 2026-09-01 12:09:12 | 48.84141 | 2.77594 | 77° | 58km/h | 15243m | 4.9m/s | -52.2°C | 0% | 0hPa | 5.4V | 00:00:00 | 00:00:00 | 00:00:00 | |
| DB0UT-7 | 2026-09-01 12:08:42 | 48.83982 | 2.76960 | 73° | 58km/h | 15110m | 5.0m/s | -51.8°C | 0% | 0hPa | 5.4V | 00:00:00 | 00:00:00 | 00:00:00 | |
| DB0UT-7 | 2026-09-01 12:07:29 | 48.83848 | 2.75326 | 81° | 58km/h | 14773m | 4.5m/s | -53.1°C | 0% | 0hPa | 5.4V | 00:00:00 | 00:00:00 | 00:00:00 | |
| DB0UT-7 | 2026-09-01 12:07:00 | 48.83797 | 2.74663 | 81° | 71km/h | 14638m | 4.0m/s | -53.4°C | 0% | 0hPa | 5.4V | 00:00:00 | 00:00:00 | 00:00:00 | |
| DB0UT-7 | 2026-09-01 12:05:47 | 48.83626 | 2.72868 | 82° | 73km/h | 14320m | 4.4m/s | -53.1°C | 0% | 0hPa | 5.4V | 00:00:00 | 00:00:00 | 00:00:00 | |
| DB0UT-7 | 2026-09-01 12:05:17 | 48.83527 | 2.72052 | 84° | 69km/h | 14191m | 4.8m/s | -52.8°C | 0% | 0hPa | 5.4V | 00:00:00 | 00:00:00 | 00:00:00 | |
| DB0UT-7 | 2026-09-01 12:04:04 | 48.83325 | 2.70049 | 83° | 75km/h | 13876m | 3.9m/s | -52.7°C | 0% | 0hPa | 5.5V | 00:00:00 | 00:00:00 | 00:00:00 | |
| DB0UT-7 | 2026-09-01 12:03:34 | 48.83257 | 2.69207 | 84° | 82km/h | 13746m | 3.7m/s | -52.7°C | 0% | 0hPa | 5.5V | 00:00:00 | 00:00:00 | 00:00:00 | |
| DB0UT-7 | 2026-09-01 12:02:21 | 48.83140 | 2.67024 | 90° | 86km/h | 13428m | 4.2m/s | -52.7°C | 0% | 0hPa | 5.5V | 00:00:00 | 00:00:00 | 00:00:00 | |
| DB0UT-7 | 2026-09-01 12:01:51 | 48.83077 | 2.66044 | 87° | 95km/h | 13298m | 4.5m/s | -53.1°C | 0% | 0hPa | 5.5V | 00:00:00 | 00:00:00 | 00:00:00 | |
| DB0UT-7 | 2026-09-01 12:00:39 | 48.82900 | 2.63462 | 79° | 99km/h | 12985m | 2.3m/s | -55.1°C | 0% | 0hPa | 5.5V | 00:00:00 | 00:00:00 | 00:00:00 | |
| DB0UT-7 | 2026-09-01 12:00:10 | 48.82672 | 2.62386 | 71° | 88km/h | 12853m | 4.1m/s | -54.8°C | 0% | 0hPa | 5.5V | 00:00:00 | 00:00:00 | 00:00:00 | |
| DB0UT-7 | 2026-09-01 11:58:57 | 48.82289 | 2.60126 | 87° | 93km/h | 12518m | 5.1m/s | -53.7°C | 0% | 0hPa | 5.5V | 00:00:00 | 00:00:00 | 00:00:00 | |
| DB0UT-7 | 2026-09-01 11:58:27 | 48.82219 | 2.59059 | 83° | 104km/h | 12382m | 4.5m/s | -55.0°C | 0% | 0hPa | 5.5V | 00:00:00 | 00:00:00 | 00:00:00 | |
| DB0UT-7 | 2026-09-01 11:57:13 | 48.81827 | 2.56226 | 82° | 110km/h | 12065m | 4.4m/s | -57.0°C | 0% | 0hPa | 5.5V | 00:00:00 | 00:00:00 | 00:00:00 | |
| DB0UT-7 | 2026-09-01 11:56:43 | 48.81638 | 2.55007 | 81° | 113km/h | 11941m | 5.1m/s | -56.7°C | 0% | 0hPa | 5.5V | 00:00:00 | 00:00:00 | 00:00:00 | |
| DB0UT-7 | 2026-09-01 11:55:32 | 48.81242 | 2.52071 | 78° | 117km/h | 11651m | 3.8m/s | -55.6°C | 0% | 0hPa | 5.5V | 00:00:00 | 00:00:00 | 00:00:00 | |
| DB0UT-7 | 2026-09-01 11:55:02 | 48.81062 | 2.50748 | 78° | 120km/h | 11521m | 4.7m/s | -55.6°C | 0% | 0hPa | 5.5V | 00:00:00 | 00:00:00 | 00:00:00 | |
| DB0UT-7 | 2026-09-01 11:53:48 | 48.80490 | 2.47422 | 78° | 120km/h | 11204m | 4.7m/s | -53.6°C | 0% | 0hPa | 5.5V | 00:00:00 | 00:00:00 | 00:00:00 | |
| DB0UT-7 | 2026-09-01 11:53:18 | 48.80277 | 2.46086 | 76° | 115km/h | 11075m | 4.5m/s | -52.9°C | 0% | 0hPa | 5.5V | 00:00:00 | 00:00:00 | 00:00:00 | |
| DB0UT-7 | 2026-09-01 11:52:06 | 48.79799 | 2.42960 | 76° | 110km/h | 10751m | 6.3m/s | -50.7°C | 0% | 0hPa | 5.5V | 00:00:00 | 00:00:00 | 00:00:00 | |
| DB0UT-7 | 2026-09-01 11:51:36 | 48.79602 | 2.41729 | 76° | 100km/h | 10622m | 3.7m/s | -49.8°C | 0% | 0hPa | 5.5V | 00:00:00 | 00:00:00 | 00:00:00 | |
| DB0UT-7 | 2026-09-01 11:50:23 | 48.79140 | 2.38962 | 77° | 97km/h | 10321m | 3.5m/s | -47.5°C | 0% | 0hPa | 5.5V | 00:00:00 | 00:00:00 | 00:00:00 | |
| DB0UT-7 | 2026-09-01 11:49:53 | 48.78983 | 2.37878 | 77° | 97km/h | 10196m | 4.8m/s | -46.9°C | 0% | 0hPa | 5.5V | 00:00:00 | 00:00:00 | 00:00:00 | |
| DB0UT-7 | 2026-09-01 11:48:41 | 48.78643 | 2.35233 | 77° | 93km/h | 9864m | 4.7m/s | -45.1°C | 0% | 0hPa | 5.6V | 00:00:00 | 00:00:00 | 00:00:00 | |
| DB0UT-7 | 2026-09-01 11:48:10 | 48.78492 | 2.34203 | 82° | 88km/h | 9719m | 4.9m/s | -44.4°C | 0% | 0hPa | 5.6V | 00:00:00 | 00:00:00 | 00:00:00 | |
| DB0UT-7 | 2026-09-01 11:46:58 | 48.78260 | 2.31922 | 89° | 82km/h | 9363m | 4.2m/s | -41.2°C | 0% | 0hPa | 5.6V | 00:00:00 | 00:00:00 | 00:00:00 | |
| DB0UT-7 | 2026-09-01 11:46:28 | 48.78206 | 2.30990 | 89° | 77km/h | 9226m | 4.7m/s | -40.0°C | 0% | 0hPa | 5.6V | 00:00:00 | 00:00:00 | 00:00:00 | |
| DB0UT-7 | 2026-09-01 11:45:20 | 48.78122 | 2.28941 | 88° | 82km/h | 8934m | 3.8m/s | -37.7°C | 0% | 0hPa | 5.6V | 00:00:00 | 00:00:00 | 00:00:00 | |
| DB0UT-7 | 2026-09-01 11:44:50 | 48.78078 | 2.28009 | 81° | 75km/h | 8784m | 5.0m/s | -36.3°C | 0% | 0hPa | 5.6V | 00:00:00 | 00:00:00 | 00:00:00 | |
| DB0UT-7 | 2026-09-01 11:43:32 | 48.77930 | 2.25723 | 89° | 77km/h | 8454m | 4.3m/s | -33.4°C | 0% | 0hPa | 5.6V | 00:00:00 | 00:00:00 | 00:00:00 | |
| DB0UT-7 | 2026-09-01 11:43:02 | 48.77874 | 2.24856 | 82° | 68km/h | 8314m | 6.5m/s | -32.2°C | 0% | 0hPa | 5.6V | 00:00:00 | 00:00:00 | 00:00:00 | |
| DB0UT-7 | 2026-09-01 11:41:50 | 48.77708 | 2.23014 | 86° | 62km/h | 7989m | 4.8m/s | -29.4°C | 0% | 0hPa | 5.6V | 00:00:00 | 00:00:00 | 00:00:00 | |
| DB0UT-7 | 2026-09-01 11:41:20 | 48.77621 | 2.22330 | 85° | 57km/h | 7807m | 5.3m/s | -28.1°C | 0% | 0hPa | 5.6V | 00:00:00 | 00:00:00 | 00:00:00 | |
| DB0UT-7 | 2026-09-01 11:40:09 | 48.77414 | 2.20774 | 74° | 58km/h | 7473m | 4.8m/s | -25.5°C | 0% | 0hPa | 5.6V | 00:00:00 | 00:00:00 | 00:00:00 | |
| DB0UT-7 | 2026-09-01 11:39:38 | 48.77295 | 2.20142 | 69° | 58km/h | 7333m | 4.5m/s | -24.4°C | 0% | 0hPa | 5.6V | 00:00:00 | 00:00:00 | 00:00:00 | |
| DB0UT-7 | 2026-09-01 11:38:26 | 48.77062 | 2.18516 | 72° | 55km/h | 6968m | 6.4m/s | -21.5°C | 0% | 0hPa | 5.6V | 00:00:00 | 00:00:00 | 00:00:00 | |
| DB0UT-7 | 2026-09-01 11:37:55 | 48.76962 | 2.17907 | 74° | 53km/h | 6842m | 4.4m/s | -20.5°C | 0% | 0hPa | 5.6V | 00:00:00 | 00:00:00 | 00:00:00 | |
| DB0UT-7 | 2026-09-01 11:36:44 | 48.76783 | 2.16460 | 97° | 49km/h | 6547m | 2.8m/s | -18.8°C | 0% | 0hPa | 5.6V | 00:00:00 | 00:00:00 | 00:00:00 |